CheckWX is a tool to help pilots better visualize weather data.  It is not intended as a substitute for an official pre-flight weather briefing.

10:09:55 UTC

KLMT TAF
Crater Lake-Klamath Regional Airport
Klamath Falls, Oregon, USA
KLMT 220527Z 2206/2306 VRB03KT P6SM SKC FM221700 24003KT P6SM BKN070 FM222000 27010KT P6SM VCSH BKN040 OVC070 FM230400 28005KT P6SM SCT040

Sep-22@
06:00 UTC

Sep-22 @ 06:00 UTC

Sep-22@
17:00 UTC

Sep-22 @ 17:00 UTC

KLMT 220527Z 2206/2306 VRB03KT P6SM SKC
Wind
  • Variable at 3 KTS
Cloud Levels
  • Clear skies

Sep-22@
17:00 UTC

Sep-22 @ 17:00 UTC

Sep-22@
20:00 UTC

Sep-22 @ 20:00 UTC

FM221700 24003KT P6SM BKN070

From

From Standard forecast or significant change

Wind
  • 240° at 3 KTS
Cloud Levels
  • Broken at 7,000' AGL

Sep-22@
20:00 UTC

Sep-22 @ 20:00 UTC

Sep-23@
04:00 UTC

Sep-23 @ 04:00 UTC

FM222000 27010KT P6SM VCSH BKN040 OVC070

From

From Standard forecast or significant change

Wind
  • 270° at 10 KTS
Cloud Levels
  • Broken at 4,000' AGL
  • Overcast at 7,000' AGL

Sep-23@
04:00 UTC

Sep-23 @ 04:00 UTC

Sep-23@
06:00 UTC

Sep-23 @ 06:00 UTC

FM230400 28005KT P6SM SCT040

From

From Standard forecast or significant change

Wind
  • 280° at 5 KTS
Cloud Levels
  • Scattered at 4,000' AGL